Time;durP1;ratioP1;P1;durP2;ratioP2;P2;SDS_P1;SDS_P2;PMS_P1;PMS_P2;Temp;Humidity;BMP_temperature;BMP_pressure;BME280_temperature;BME280_humidity;BME280_pressure;Samples;Min_cycle;Max_cycle;Signal;HPM_P1;HPM_P2
2022/10/07 00:01:56;;;;;;;4.68;2.53;;;;;;;14.47;65.97;101499.94;5010354;28;20412;-78
2022/10/07 00:04:21;;;;;;;6.85;2.60;;;;;;;14.43;66.10;101508.44;5010683;28;20022;-74
2022/10/07 00:06:47;;;;;;;4.55;2.40;;;;;;;14.43;66.70;101500.63;5010640;28;20171;-75
2022/10/07 00:09:13;;;;;;;6.05;2.70;;;;;;;14.49;66.70;101498.25;5010704;28;20026;-74
2022/10/07 00:11:39;;;;;;;4.13;2.33;;;;;;;14.51;66.38;101491.41;5010206;28;20045;-73
2022/10/07 00:14:07;;;;;;;4.40;2.55;;;;;;;14.63;65.93;101501.38;5010473;28;20022;-74
2022/10/07 00:16:36;;;;;;;5.80;2.78;;;;;;;14.75;65.76;101501.84;5010265;28;20480;-75
2022/10/07 00:19:04;;;;;;;4.50;2.50;;;;;;;14.79;65.85;101501.16;5010695;28;20127;-74
2022/10/07 00:21:32;;;;;;;4.25;2.70;;;;;;;14.82;65.84;101492.59;5010781;28;20030;-74
2022/10/07 00:23:58;;;;;;;6.28;3.03;;;;;;;14.86;65.26;101500.53;5010724;28;20168;-75
2022/10/07 00:26:26;;;;;;;4.65;2.60;;;;;;;14.84;65.70;101496.09;5010207;28;20029;-76
2022/10/07 00:28:52;;;;;;;3.90;2.58;;;;;;;14.70;66.13;101488.72;5009261;28;20042;-73
2022/10/07 00:31:21;;;;;;;5.25;2.40;;;;;;;14.75;66.14;101482.78;5010708;28;20034;-75
2022/10/07 00:33:47;;;;;;;4.75;2.33;;;;;;;14.74;66.09;101475.81;5010452;28;20030;-75
2022/10/07 00:36:22;;;;;;;8.30;2.70;;;;;;;14.57;66.40;101453.53;5025764;28;20486;-73
2022/10/07 00:38:54;;;;;;;4.53;2.42;;;;;;;14.76;66.40;101482.84;5010278;28;20133;-73
2022/10/07 00:41:23;;;;;;;3.92;2.22;;;;;;;14.65;66.76;101492.84;5009632;28;20108;-71
2022/10/07 00:43:49;;;;;;;3.17;2.50;;;;;;;14.62;66.86;101477.09;5010352;28;20052;-76
2022/10/07 00:46:32;;;;;;;3.42;2.30;;;;;;;14.68;66.58;101490.34;5010185;28;20540;-75
2022/10/07 00:49:01;;;;;;;4.97;2.78;;;;;;;14.74;66.48;101488.81;5009946;28;20057;-72
2022/10/07 00:51:28;;;;;;;6.55;2.75;;;;;;;14.63;66.76;101485.78;5010036;28;20026;-72
2022/10/07 00:53:55;;;;;;;5.95;2.50;;;;;;;14.57;67.84;101487.31;5010018;28;20119;-74
2022/10/07 00:56:22;;;;;;;4.45;2.53;;;;;;;14.66;67.80;101483.34;5009958;28;20022;-73
2022/10/07 00:58:49;;;;;;;4.60;2.67;;;;;;;14.67;67.98;101479.91;5009933;28;20101;-74
2022/10/07 01:01:16;;;;;;;4.18;2.50;;;;;;;14.63;67.77;101473.69;5009730;28;20033;-70
2022/10/07 01:03:42;;;;;;;5.40;2.78;;;;;;;14.54;68.56;101474.22;5009859;28;20041;-73
2022/10/07 01:06:09;;;;;;;5.75;2.40;;;;;;;14.27;69.30;101435.13;5009696;28;20030;-74
2022/10/07 01:08:35;;;;;;;5.07;2.50;;;;;;;14.47;69.53;101464.44;5009682;28;20025;-72
2022/10/07 01:11:22;;;;;;;3.78;2.30;;;;;;;14.37;69.81;101463.22;5009761;28;20048;-75
2022/10/07 01:14:06;;;;;;;5.18;2.65;;;;;;;14.38;70.53;101459.78;5009865;28;20056;-74
2022/10/07 01:16:54;;;;;;;2.85;2.20;;;;;;;14.06;71.37;101410.09;5010007;28;20034;-74
2022/10/07 01:19:35;;;;;;;5.38;2.92;;;;;;;14.27;71.94;101455.00;5026861;28;20067;-76
2022/10/07 01:22:24;;;;;;;3.63;2.50;;;;;;;14.11;72.31;101443.19;5014677;28;20123;-73
2022/10/07 01:25:11;;;;;;;4.28;2.40;;;;;;;14.16;72.86;101460.69;5026774;28;20076;-74
2022/10/07 01:27:41;;;;;;;4.75;2.45;;;;;;;14.00;74.32;101455.72;5027014;28;20025;-74
2022/10/07 01:30:08;;;;;;;4.53;2.78;;;;;;;13.95;73.80;101463.34;5026918;28;20111;-74
2022/10/07 01:32:58;;;;;;;4.35;2.30;;;;;;;13.86;73.93;101455.19;5026761;28;20056;-74
2022/10/07 01:35:27;;;;;;;5.15;2.60;;;;;;;13.88;74.17;101462.22;5026923;28;20041;-75
2022/10/07 01:37:59;;;;;;;5.00;2.47;;;;;;;13.75;74.42;101458.22;5026695;28;20037;-74
2022/10/07 01:40:44;;;;;;;7.82;3.08;;;;;;;13.66;74.72;101455.28;5030259;28;20036;-73
2022/10/07 01:43:13;;;;;;;4.28;2.50;;;;;;;13.52;74.53;101436.56;5030491;28;20029;-73
2022/10/07 01:45:40;;;;;;;3.27;2.20;;;;;;;13.62;74.76;101456.00;5030319;28;20038;-74
2022/10/07 01:48:05;;;;;;;3.33;2.53;;;;;;;13.68;74.48;101456.25;5029793;28;20041;-72
2022/10/07 01:50:31;;;;;;;4.43;2.60;;;;;;;13.78;74.24;101466.97;5030535;28;20129;-70
2022/10/07 01:53:25;;;;;;;5.55;2.50;;;;;;;13.84;73.63;101464.63;5030221;28;20034;-70
2022/10/07 01:56:23;;;;;;;10.13;2.50;;;;;;;13.87;73.27;101464.75;4913991;29;20447;-73
2022/10/07 01:59:16;;;;;;;3.78;2.45;;;;;;;13.95;73.10;101460.75;4895221;29;20416;-70
2022/10/07 02:01:52;;;;;;;6.30;2.60;;;;;;;13.83;72.60;101429.09;4894898;29;20476;-73
2022/10/07 02:04:35;;;;;;;4.60;2.30;;;;;;;14.15;72.61;101465.81;4894932;29;20044;-74
2022/10/07 02:07:15;;;;;;;6.55;3.03;;;;;;;14.23;72.32;101457.50;4895019;29;20040;-74
2022/10/07 02:09:45;;;;;;;;;;;;;;;14.29;71.89;101464.63;4895364;29;20123;-73
2022/10/07 02:12:31;;;;;;;4.88;2.40;;;;;;;14.30;71.25;101462.94;4893988;29;19916;-74
2022/10/07 02:15:25;;;;;;;9.25;2.67;;;;;;;14.36;71.48;101470.94;4894639;29;20040;-74
2022/10/07 02:17:57;;;;;;;5.70;2.72;;;;;;;14.37;70.98;101463.22;4876077;29;20047;-76
2022/10/07 02:20:27;;;;;;;7.68;3.08;;;;;;;14.06;71.56;101414.44;4860076;29;20630;-78
2022/10/07 02:22:56;;;;;;;4.88;2.70;;;;;;;14.30;71.84;101460.31;4875806;29;20073;-76
2022/10/07 02:25:24;;;;;;;5.03;2.97;;;;;;;14.28;71.83;101462.88;4875819;29;20113;-75
2022/10/07 02:27:52;;;;;;;5.68;3.20;;;;;;;14.26;72.27;101463.66;4875738;29;20040;-76
2022/10/07 02:30:19;;;;;;;7.20;2.95;;;;;;;14.16;72.49;101455.50;4875728;29;20045;-78
2022/10/07 02:32:53;;;;;;;5.72;3.53;;;;;;;14.19;72.40;101457.31;4894243;29;20501;-76
2022/10/07 02:36:21;;;;;;;11.98;3.63;;;;;;;14.23;72.46;101461.78;4928331;28;20030;-76
2022/10/07 02:38:47;;;;;;;5.63;2.90;;;;;;;14.27;71.76;101463.69;4894253;29;20649;-76
2022/10/07 02:41:31;;;;;;;6.35;2.78;;;;;;;14.17;71.30;101433.03;4893899;29;20045;-76
2022/10/07 02:44:10;;;;;;;6.05;2.72;;;;;;;14.36;70.88;101458.84;4894215;29;20049;-77
2022/10/07 02:46:47;;;;;;;6.63;3.03;;;;;;;14.37;70.52;101449.34;4894096;29;20040;-73
2022/10/07 02:49:17;;;;;;;4.75;2.90;;;;;;;14.36;71.03;101442.38;4878724;29;20149;-74
2022/10/07 02:51:58;;;;;;;4.63;2.90;;;;;;;14.50;70.14;101459.34;4893569;29;20488;-73
2022/10/07 02:54:33;;;;;;;4.60;2.97;;;;;;;14.50;70.27;101453.28;4901558;29;20032;-73
2022/10/07 02:57:00;;;;;;;6.28;3.40;;;;;;;14.53;70.20;101456.00;4912398;29;20116;-75
2022/10/07 02:59:27;;;;;;;7.82;3.70;;;;;;;14.44;70.78;101456.50;4912596;29;20050;-74
2022/10/07 03:01:57;;;;;;;5.18;3.42;;;;;;;14.34;71.30;101457.00;4912863;29;20607;-72
2022/10/07 03:04:23;;;;;;;7.32;3.88;;;;;;;14.28;71.43;101459.38;4913027;29;20048;-73
2022/10/07 03:06:48;;;;;;;10.10;4.40;;;;;;;14.23;72.24;101466.97;4912792;29;20111;-73
2022/10/07 03:09:14;;;;;;;6.40;3.92;;;;;;;14.03;72.61;101435.97;4925580;29;20059;-73
2022/10/07 03:11:39;;;;;;;7.57;4.35;;;;;;;14.00;72.94;101424.56;4950647;29;20075;-73
2022/10/07 03:14:05;;;;;;;13.65;4.93;;;;;;;14.13;73.06;101454.47;4954772;28;20035;-74
2022/10/07 03:16:31;;;;;;;11.07;4.70;;;;;;;14.20;72.49;101453.91;5011126;28;20030;-73
2022/10/07 03:18:57;;;;;;;13.45;5.55;;;;;;;14.29;71.99;101461.16;5011308;28;20072;-73
2022/10/07 03:21:24;;;;;;;10.45;5.07;;;;;;;14.34;72.57;101455.31;5011746;28;20087;-73
2022/10/07 03:23:51;;;;;;;9.98;5.28;;;;;;;14.39;72.65;101458.97;5010747;28;20018;-73
2022/10/07 03:26:18;;;;;;;11.75;6.00;;;;;;;14.38;72.93;101467.56;5011329;28;20026;-72
2022/10/07 03:28:43;;;;;;;12.65;6.03;;;;;;;14.32;73.15;101469.94;5011067;28;20029;-71
2022/10/07 03:31:11;;;;;;;13.80;5.85;;;;;;;14.24;73.62;101466.16;5010856;28;20531;-73
2022/10/07 03:33:37;;;;;;;9.15;5.80;;;;;;;13.94;73.64;101425.22;5011294;28;20034;-73
2022/10/07 03:36:04;;;;;;;10.68;5.82;;;;;;;14.17;73.51;101469.38;5010860;28;20152;-72
2022/10/07 03:38:30;;;;;;;9.85;5.53;;;;;;;13.97;73.40;101425.34;5042516;28;20488;-74
2022/10/07 03:40:56;;;;;;;11.73;5.25;;;;;;;14.32;72.50;101474.28;5010657;28;20028;-74
2022/10/07 03:43:22;;;;;;;9.18;5.65;;;;;;;14.32;72.98;101469.94;5041680;28;20480;-74
2022/10/07 03:45:51;;;;;;;8.93;5.43;;;;;;;14.35;73.38;101469.16;5009696;28;20110;-75
2022/10/07 03:48:17;;;;;;;8.35;4.95;;;;;;;14.37;73.21;101472.72;5010735;28;20602;-74
2022/10/07 03:50:52;;;;;;;9.65;5.63;;;;;;;14.22;74.10;101470.44;5011101;28;20026;-73
2022/10/07 03:53:19;;;;;;;8.20;5.40;;;;;;;13.93;75.36;101479.69;5010705;28;20040;-72
2022/10/07 03:55:44;;;;;;;12.93;5.60;;;;;;;13.88;75.80;101467.41;5010803;28;20409;-76
2022/10/07 03:58:14;;;;;;;12.00;5.55;;;;;;;13.98;76.07;101476.44;5010866;28;20037;-79
2022/10/07 04:00:40;;;;;;;10.73;5.57;;;;;;;13.99;76.08;101466.94;5010498;28;20088;-74
2022/10/07 04:03:06;;;;;;;12.80;5.60;;;;;;;14.13;75.30;101472.66;4991861;28;20096;-77
2022/10/07 04:05:33;;;;;;;9.77;5.82;;;;;;;14.12;75.37;101479.56;5010160;28;20032;-73
2022/10/07 04:07:58;;;;;;;11.85;5.18;;;;;;;14.13;74.77;101481.34;5010571;28;20029;-76
2022/10/07 04:10:25;;;;;;;9.15;5.38;;;;;;;14.01;74.45;101457.50;5010259;28;20511;-74
2022/10/07 04:12:51;;;;;;;22.13;5.75;;;;;;;14.21;75.00;101481.66;5010548;28;20042;-76
2022/10/07 04:15:17;;;;;;;11.48;5.72;;;;;;;14.34;74.50;101491.69;5010485;28;20042;-75
2022/10/07 04:17:44;;;;;;;13.63;5.30;;;;;;;14.42;74.19;101481.56;5010415;28;20416;-75
2022/10/07 04:20:12;;;;;;;13.40;5.45;;;;;;;14.26;73.96;101456.72;5010333;28;20030;-75
2022/10/07 04:22:37;;;;;;;14.93;5.82;;;;;;;14.44;73.64;101492.00;5007774;28;20415;-72
2022/10/07 04:27:53;;;;;;;14.88;5.28;;;;;;;14.40;72.81;101491.00;5009233;28;20408;-74
2022/10/07 04:30:20;;;;;;;14.23;4.57;;;;;;;14.36;72.56;101492.59;5009764;28;20029;-74
2022/10/07 04:32:46;;;;;;;13.52;4.68;;;;;;;14.28;72.25;101494.03;5009609;28;20026;-74
2022/10/07 04:35:11;;;;;;;12.25;4.60;;;;;;;14.24;72.22;101495.63;5009693;28;20056;-74
2022/10/07 04:37:36;;;;;;;12.43;4.30;;;;;;;14.23;72.02;101498.16;5010151;28;20081;-75
2022/10/07 04:40:02;;;;;;;7.38;3.60;;;;;;;14.19;71.78;101493.66;5009206;28;20029;-72
2022/10/07 04:45:13;;;;;;;11.02;3.83;;;;;;;14.08;71.24;101499.34;5008990;28;20049;-76
2022/10/07 04:47:39;;;;;;;8.10;3.65;;;;;;;14.04;71.17;101491.38;5023647;28;20042;-74
2022/10/07 04:50:06;;;;;;;6.63;3.38;;;;;;;14.01;71.35;101493.84;5009377;28;20502;-75
2022/10/07 04:52:32;;;;;;;8.85;4.70;;;;;;;13.75;71.01;101453.03;5009964;28;20389;-73
2022/10/07 04:54:57;;;;;;;9.13;4.15;;;;;;;13.95;71.29;101509.19;5009930;28;20112;-72
2022/10/07 04:57:23;;;;;;;10.05;3.80;;;;;;;13.74;71.29;101466.88;5009975;28;20604;-72
2022/10/07 04:59:48;;;;;;;11.15;3.55;;;;;;;13.99;71.16;101493.78;5010059;28;20036;-74
2022/10/07 05:02:13;;;;;;;11.82;4.00;;;;;;;14.01;70.99;101484.34;5009012;28;20548;-74
2022/10/07 05:04:39;;;;;;;9.07;3.70;;;;;;;13.73;71.05;101456.41;5007450;28;20037;-75
2022/10/07 05:07:04;;;;;;;7.07;2.80;;;;;;;13.84;71.67;101495.78;5006575;28;20076;-72
2022/10/07 05:09:30;;;;;;;7.07;3.10;;;;;;;13.69;72.15;101485.66;5009289;28;20022;-74
2022/10/07 05:11:55;;;;;;;5.75;3.40;;;;;;;13.70;72.15;101498.69;5009548;28;20045;-72
2022/10/07 05:14:21;;;;;;;5.95;3.60;;;;;;;13.63;72.34;101475.03;5010994;28;20025;-74
2022/10/07 05:16:48;;;;;;;7.95;3.83;;;;;;;13.80;72.21;101506.88;5013508;28;20022;-72
2022/10/07 05:19:13;;;;;;;7.93;3.83;;;;;;;13.75;72.33;101504.06;5013425;28;20072;-74
2022/10/07 05:21:39;;;;;;;12.98;4.88;;;;;;;13.68;72.64;101495.16;5013013;28;20030;-74
2022/10/07 05:24:04;;;;;;;9.52;4.30;;;;;;;13.82;72.55;101513.88;5013427;28;20100;-74
2022/10/07 05:26:29;;;;;;;12.52;3.90;;;;;;;13.81;72.66;101514.72;5013015;28;20038;-75
2022/10/07 05:28:55;;;;;;;24.17;4.13;;;;;;;13.89;72.21;101509.81;5012495;28;20026;-75
2022/10/07 05:31:20;;;;;;;11.82;5.43;;;;;;;13.91;72.19;101516.84;5011777;28;20029;-74
2022/10/07 05:33:48;;;;;;;7.70;4.60;;;;;;;13.94;71.93;101516.06;5013095;28;20431;-75
2022/10/07 05:36:14;;;;;;;9.20;4.13;;;;;;;13.91;72.14;101510.78;5012685;28;20037;-76
2022/10/07 05:38:39;;;;;;;11.77;3.70;;;;;;;13.89;71.98;101499.44;5012878;28;20021;-74
2022/10/07 05:41:06;;;;;;;7.20;4.00;;;;;;;13.99;72.27;101509.34;5012588;28;20452;-74
2022/10/07 05:43:36;;;;;;;9.63;5.03;;;;;;;14.02;72.45;101511.22;5012528;28;20481;-73
2022/10/07 05:46:13;;;;;;;15.43;6.40;;;;;;;14.08;72.44;101512.31;5012782;28;20030;-74
2022/10/07 05:48:40;;;;;;;11.50;5.47;;;;;;;14.01;72.47;101494.72;5012231;28;20080;-73
2022/10/07 05:51:09;;;;;;;13.15;5.00;;;;;;;14.07;73.36;101520.94;5012546;28;20160;-74
2022/10/07 05:53:35;;;;;;;8.55;5.03;;;;;;;13.93;73.32;101510.84;5013127;28;20034;-75
2022/10/07 05:56:05;;;;;;;11.10;6.15;;;;;;;13.99;73.16;101513.66;5011975;28;20033;-72
2022/10/07 05:58:31;;;;;;;12.35;5.90;;;;;;;14.09;73.05;101521.00;5012404;28;20030;-74
2022/10/07 06:00:58;;;;;;;10.05;5.70;;;;;;;14.14;72.60;101528.97;5027682;28;20029;-74
2022/10/07 06:03:25;;;;;;;10.65;5.18;;;;;;;14.23;73.31;101518.94;5012443;28;20029;-74
2022/10/07 06:05:51;;;;;;;14.40;4.80;;;;;;;14.33;72.82;101525.38;5012493;28;20049;-73
2022/10/07 06:08:18;;;;;;;5.82;3.72;;;;;;;14.44;71.46;101531.84;5012043;28;20521;-74
2022/10/07 06:13:34;;;;;;;9.60;3.78;;;;;;;14.36;71.59;101513.38;5012412;28;20519;-74
2022/10/07 06:16:06;;;;;;;9.95;3.72;;;;;;;14.44;71.71;101530.97;5012198;28;20063;-71
2022/10/07 06:18:32;;;;;;;9.43;3.47;;;;;;;14.34;70.74;101506.38;5012425;28;20662;-73
2022/10/07 06:20:59;;;;;;;9.27;3.10;;;;;;;14.56;70.96;101536.66;5010546;28;20527;-73
2022/10/07 06:23:26;;;;;;;8.13;3.10;;;;;;;14.53;71.10;101520.97;5012289;28;20026;-72
2022/10/07 06:26:00;;;;;;;6.15;3.05;;;;;;;14.67;70.30;101537.97;5011052;28;20030;-71
2022/10/07 06:28:31;;;;;;;12.25;3.47;;;;;;;14.78;69.20;101527.06;5012088;28;20037;-73
2022/10/07 06:30:56;;;;;;;6.93;3.50;;;;;;;14.80;68.51;101536.69;5011757;28;20108;-70
2022/10/07 06:33:21;;;;;;;6.88;3.50;;;;;;;14.85;67.64;101523.88;5011301;28;20072;-71
2022/10/07 06:35:47;;;;;;;5.00;3.10;;;;;;;14.68;67.46;101533.66;5011618;28;20026;-76
2022/10/07 06:38:12;;;;;;;7.00;2.95;;;;;;;14.52;67.93;101526.97;5011831;28;20079;-72
2022/10/07 06:40:38;;;;;;;3.90;2.53;;;;;;;14.43;70.09;101534.41;5010376;28;20030;-73
2022/10/07 06:43:04;;;;;;;4.15;2.85;;;;;;;14.21;69.94;101533.59;4993922;28;20034;-72
2022/10/07 06:45:31;;;;;;;4.68;2.75;;;;;;;14.24;70.06;101528.50;5011446;28;20030;-73
2022/10/07 06:47:56;;;;;;;4.10;2.65;;;;;;;14.38;70.83;101534.22;5011660;28;20135;-73
2022/10/07 06:50:22;;;;;;;5.18;2.50;;;;;;;14.45;69.55;101528.44;5011872;28;20062;-73
2022/10/07 06:52:48;;;;;;;5.75;3.10;;;;;;;14.45;69.56;101538.81;5012474;28;20404;-73
2022/10/07 06:55:13;;;;;;;5.38;2.88;;;;;;;14.57;69.26;101534.09;5012048;28;20025;-73
2022/10/07 06:57:40;;;;;;;8.10;3.72;;;;;;;14.62;68.09;101521.28;5010475;28;20140;-73
2022/10/07 07:00:06;;;;;;;6.97;2.83;;;;;;;14.73;67.35;101532.13;5009698;28;20030;-74
2022/10/07 07:02:32;;;;;;;5.70;3.72;;;;;;;14.84;66.44;101525.59;5010446;28;20029;-74
2022/10/07 07:04:57;;;;;;;6.38;3.15;;;;;;;14.94;68.32;101531.13;5011952;28;20029;-74
2022/10/07 07:07:23;;;;;;;5.15;3.00;;;;;;;14.66;67.39;101455.63;5011894;28;20026;-73
2022/10/07 07:09:51;;;;;;;4.32;2.47;;;;;;;15.24;66.98;101531.34;5010411;28;20022;-74
2022/10/07 07:12:17;;;;;;;3.45;2.20;;;;;;;15.22;64.99;101530.38;5008889;28;20022;-73
2022/10/07 07:14:45;;;;;;;4.80;2.33;;;;;;;15.40;66.17;101527.53;5011595;28;20028;-70
2022/10/07 07:17:11;;;;;;;5.45;2.88;;;;;;;15.50;64.90;101531.31;5009757;28;20518;-73
2022/10/07 07:19:36;;;;;;;3.88;2.50;;;;;;;15.53;63.80;101515.84;5011692;28;20134;-73
2022/10/07 07:22:02;;;;;;;4.10;2.88;;;;;;;15.58;63.03;101532.47;5010454;28;20034;-73
2022/10/07 07:24:28;;;;;;;6.10;2.60;;;;;;;15.66;62.45;101523.22;5011648;28;20054;-72
2022/10/07 07:26:53;;;;;;;5.25;2.60;;;;;;;15.81;61.84;101521.94;5011792;28;20123;-72
2022/10/07 07:29:19;;;;;;;3.85;2.80;;;;;;;15.96;62.84;101521.56;5011478;28;20030;-71
2022/10/07 07:31:44;;;;;;;5.85;2.65;;;;;;;15.90;61.64;101521.38;5011533;28;20037;-72
2022/10/07 07:34:12;;;;;;;5.47;2.88;;;;;;;16.01;61.53;101510.47;5011552;28;20030;-72
2022/10/07 07:36:42;;;;;;;6.93;2.70;;;;;;;16.20;61.99;101508.44;5011180;28;20053;-71
2022/10/07 07:39:10;;;;;;;5.95;2.53;;;;;;;16.37;59.58;101493.28;5011474;28;20053;-71
2022/10/07 07:41:40;;;;;;;6.72;2.53;;;;;;;16.69;58.87;101505.53;5011349;28;20112;-75
2022/10/07 07:44:10;;;;;;;6.90;2.58;;;;;;;16.91;58.43;101501.75;5011241;28;20046;-74
2022/10/07 07:46:38;;;;;;;6.30;2.80;;;;;;;17.12;60.11;101496.28;5011317;28;20465;-75
2022/10/07 07:49:04;;;;;;;7.00;4.00;;;;;;;17.32;56.61;101503.75;5011288;28;20574;-73
2022/10/07 07:51:31;;;;;;;9.73;5.25;;;;;;;17.56;56.96;101493.94;5011201;28;20026;-73
2022/10/07 07:53:58;;;;;;;8.60;4.55;;;;;;;17.76;57.27;101490.94;5011517;28;20485;-73
2022/10/07 07:56:25;;;;;;;9.13;3.80;;;;;;;17.93;54.95;101489.59;5011176;28;20487;-73
2022/10/07 07:58:50;;;;;;;5.78;2.88;;;;;;;18.17;54.69;101479.66;5010913;28;20028;-73
2022/10/07 08:01:19;;;;;;;4.30;2.60;;;;;;;18.12;54.57;101463.91;5011242;28;20038;-75
2022/10/07 08:03:46;;;;;;;9.80;3.28;;;;;;;18.40;54.34;101480.16;5011077;28;20088;-73
2022/10/07 08:06:14;;;;;;;5.38;2.58;;;;;;;18.64;52.68;101473.66;5010972;28;20492;-74
2022/10/07 08:08:42;;;;;;;12.38;3.40;;;;;;;18.76;52.11;101458.22;5010595;28;20073;-75
2022/10/07 08:11:16;;;;;;;7.72;2.95;;;;;;;19.04;51.62;101461.38;5007712;28;20400;-72
2022/10/07 08:13:42;;;;;;;5.60;3.25;;;;;;;19.20;52.11;101460.81;5023004;28;20026;-73
2022/10/07 08:16:11;;;;;;;4.78;3.10;;;;;;;19.34;50.97;101454.91;5010554;28;20105;-73
2022/10/07 08:18:38;;;;;;;5.70;2.70;;;;;;;19.49;51.11;101449.94;5007394;28;20480;-73
2022/10/07 08:21:04;;;;;;;6.13;2.72;;;;;;;19.66;48.90;101433.56;5007646;28;20117;-74
2022/10/07 08:23:30;;;;;;;10.30;2.78;;;;;;;19.82;49.06;101445.16;5009551;28;20041;-73
2022/10/07 08:25:59;;;;;;;3.78;2.33;;;;;;;20.07;47.31;101445.56;5007703;28;20033;-73
2022/10/07 08:28:26;;;;;;;5.40;2.63;;;;;;;20.28;46.03;101440.56;5010205;28;20034;-73
2022/10/07 08:30:53;;;;;;;9.27;2.88;;;;;;;20.44;47.83;101444.25;5010287;28;20049;-71
2022/10/07 08:33:19;;;;;;;5.45;2.63;;;;;;;20.22;45.92;101406.41;5010440;28;20583;-74
2022/10/07 08:35:56;;;;;;;6.07;2.70;;;;;;;20.57;45.74;101426.03;5010639;28;20044;-73
2022/10/07 08:38:21;;;;;;;10.85;2.95;;;;;;;20.49;45.99;101429.47;5009343;28;20083;-74
2022/10/07 08:40:49;;;;;;;9.85;2.58;;;;;;;20.51;46.21;101414.63;5009689;28;20113;-74
2022/10/07 08:43:17;;;;;;;12.40;2.28;;;;;;;20.51;45.80;101405.84;5010462;28;20030;-72
2022/10/07 08:45:44;;;;;;;12.20;2.92;;;;;;;20.59;44.73;101421.69;5010340;28;20056;-72
2022/10/07 08:48:19;;;;;;;14.38;2.92;;;;;;;20.63;45.30;101420.88;5008435;28;20050;-74
2022/10/07 08:51:03;;;;;;;4.80;2.30;;;;;;;20.81;44.62;101418.47;5011123;28;20030;-74
2022/10/07 08:53:32;;;;;;;8.93;2.58;;;;;;;20.79;44.66;101401.81;5004749;28;20080;-72
2022/10/07 08:56:13;;;;;;;5.13;2.08;;;;;;;21.05;43.39;101400.28;5005301;28;20041;-71
2022/10/07 08:58:54;;;;;;;7.00;2.35;;;;;;;21.22;45.15;101406.56;4994531;28;20030;-71
2022/10/07 09:01:43;;;;;;;4.30;2.30;;;;;;;21.21;44.44;101406.53;4993439;28;20060;-70
2022/10/07 09:04:27;;;;;;;6.93;2.17;;;;;;;21.27;42.87;101396.97;4982415;28;20034;-72
2022/10/07 09:07:01;;;;;;;3.40;2.00;;;;;;;21.44;42.12;101391.81;5010717;28;20061;-72
2022/10/07 09:09:38;;;;;;;5.75;2.25;;;;;;;21.56;43.29;101372.69;5005670;28;20057;-70
2022/10/07 09:12:10;;;;;;;3.90;2.22;;;;;;;21.66;42.18;101386.75;4993817;28;20145;-71
2022/10/07 09:14:43;;;;;;;8.73;2.53;;;;;;;21.60;40.29;101387.59;4996309;28;20493;-70
2022/10/07 09:17:22;;;;;;;5.70;2.38;;;;;;;21.46;41.72;101358.56;4993849;28;20041;-72
2022/10/07 09:19:49;;;;;;;6.35;2.00;;;;;;;21.79;42.44;101378.06;4993305;28;20604;-68
2022/10/07 09:22:37;;;;;;;5.85;2.50;;;;;;;21.83;40.60;101367.56;4992281;28;20034;-70
2022/10/07 09:25:12;;;;;;;9.70;2.38;;;;;;;21.94;40.53;101384.25;4992900;28;20035;-71
2022/10/07 09:27:38;;;;;;;12.70;2.42;;;;;;;21.87;40.07;101380.75;4992878;28;20018;-70
2022/10/07 09:30:05;;;;;;;4.93;2.55;;;;;;;21.90;39.53;101370.22;4992279;28;20030;-72
2022/10/07 09:32:31;;;;;;;5.28;2.20;;;;;;;22.16;39.59;101363.28;4993361;28;20034;-68
2022/10/07 09:34:57;;;;;;;8.15;2.10;;;;;;;22.33;38.20;101373.88;4995826;28;20026;-69
2022/10/07 09:37:29;;;;;;;4.93;2.45;;;;;;;22.33;38.22;101363.34;4994801;28;20409;-69
2022/10/07 09:40:15;;;;;;;7.03;2.15;;;;;;;22.30;37.99;101359.84;4993086;28;20371;-69
2022/10/07 09:42:44;;;;;;;6.03;2.17;;;;;;;22.19;37.44;101321.25;4992872;28;20117;-70
2022/10/07 09:45:31;;;;;;;7.55;2.50;;;;;;;22.36;37.23;101335.31;4992269;28;20117;-70
2022/10/07 09:48:10;;;;;;;9.05;2.10;;;;;;;22.37;36.78;101342.38;4974146;28;20050;-71
2022/10/07 09:50:39;;;;;;;3.95;2.42;;;;;;;22.46;38.27;101344.13;4992554;28;20044;-71
2022/10/07 09:53:18;;;;;;;3.42;1.70;;;;;;;22.56;36.85;101331.88;4992583;28;20030;-69
2022/10/07 09:55:44;;;;;;;4.30;2.08;;;;;;;22.60;35.17;101323.09;4992992;28;20042;-69
2022/10/07 09:58:23;;;;;;;7.22;1.90;;;;;;;22.76;33.74;101331.88;4992721;28;20546;-68
2022/10/07 10:00:52;;;;;;;7.07;1.95;;;;;;;22.89;35.07;101319.56;4994830;28;20068;-69
2022/10/07 10:03:19;;;;;;;6.57;2.10;;;;;;;22.74;35.77;101326.63;4992877;28;20026;-68
2022/10/07 10:05:57;;;;;;;7.78;1.95;;;;;;;22.81;36.31;101324.84;4996790;28;20049;-67
2022/10/07 10:08:30;;;;;;;7.18;2.00;;;;;;;23.04;34.92;101322.22;4998575;28;20034;-69
2022/10/07 10:11:01;;;;;;;5.13;2.08;;;;;;;23.29;33.75;101316.94;4992802;28;20045;-69
2022/10/07 10:13:31;;;;;;;3.65;2.00;;;;;;;23.21;33.73;101309.03;4992673;28;20044;-69
2022/10/07 10:15:57;;;;;;;3.28;1.73;;;;;;;23.09;32.83;101309.91;4992441;28;20655;-69
2022/10/07 10:18:36;;;;;;;6.20;2.08;;;;;;;23.07;32.86;101303.75;4992299;28;20061;-68
2022/10/07 10:21:18;;;;;;;;;;;;;;;23.00;33.25;101299.38;4992907;28;20113;-68
2022/10/07 10:23:46;;;;;;;3.53;1.90;;;;;;;23.16;34.01;101287.09;5003301;28;19913;-68
2022/10/07 10:26:24;;;;;;;4.65;1.83;;;;;;;23.35;33.14;101284.41;5012613;28;20034;-66
2022/10/07 10:29:08;;;;;;;4.85;2.00;;;;;;;23.67;35.18;101279.03;5000373;28;20101;-69
2022/10/07 10:31:55;;;;;;;5.30;2.10;;;;;;;23.84;35.11;101278.06;4992473;28;20080;-69
2022/10/07 10:34:41;;;;;;;5.15;2.08;;;;;;;23.84;32.80;101270.13;5012219;28;20125;-66
2022/10/07 10:37:17;;;;;;;7.68;2.28;;;;;;;24.01;32.17;101255.16;5012538;28;20033;-68
2022/10/07 10:40:00;;;;;;;5.40;1.98;;;;;;;24.19;32.27;101248.00;5011825;28;20496;-67
2022/10/07 10:42:43;;;;;;;2.63;1.77;;;;;;;23.82;29.29;101245.56;5011906;28;20172;-69
2022/10/07 10:45:52;;;;;;;2.97;1.58;;;;;;;23.96;29.80;101241.09;5012446;28;20040;-66
2022/10/07 10:48:30;;;;;;;5.57;1.75;;;;;;;23.96;30.22;101225.28;4990527;28;20069;-69
2022/10/07 10:51:04;;;;;;;4.13;1.95;;;;;;;24.12;30.84;101241.88;4990739;28;20062;-69
2022/10/07 10:53:39;;;;;;;5.30;1.88;;;;;;;24.32;29.48;101240.88;4990508;28;20042;-70
2022/10/07 10:56:30;;;;;;;2.95;1.85;;;;;;;24.48;29.26;101216.09;4973963;28;20410;-71
2022/10/07 10:59:23;;;;;;;6.10;2.08;;;;;;;24.67;29.69;101224.75;4990453;28;20509;-68
2022/10/07 11:02:02;;;;;;;13.93;3.08;;;;;;;24.76;29.71;101217.63;4990283;28;20026;-65
2022/10/07 11:04:34;;;;;;;15.10;3.08;;;;;;;24.82;29.01;101213.16;4990282;28;20038;-67
2022/10/07 11:07:07;;;;;;;10.00;2.28;;;;;;;24.53;28.34;101176.47;4990302;28;20039;-67
2022/10/07 11:09:37;;;;;;;3.17;1.70;;;;;;;24.50;28.96;101209.03;4990384;28;20063;-69
2022/10/07 11:12:17;;;;;;;3.25;1.77;;;;;;;24.30;28.91;101206.56;4989566;28;20057;-68
2022/10/07 11:14:52;;;;;;;8.15;2.28;;;;;;;24.31;29.09;101204.81;4990055;28;20128;-70
2022/10/07 11:17:24;;;;;;;6.10;1.95;;;;;;;24.22;29.21;101187.28;4941501;28;20045;-70
2022/10/07 11:20:24;;;;;;;3.35;1.80;;;;;;;24.47;30.95;101198.50;4990071;28;20137;-70
2022/10/07 11:23:20;;;;;;;7.25;2.10;;;;;;;24.70;29.11;101185.13;4913035;29;20040;-70
2022/10/07 11:25:58;;;;;;;4.65;1.80;;;;;;;24.63;29.05;101183.38;4850481;29;20041;-68
2022/10/07 11:28:29;;;;;;;3.63;1.90;;;;;;;24.71;26.89;101176.31;4856964;29;20049;-68
2022/10/07 11:31:19;;;;;;;3.65;1.65;;;;;;;24.80;29.64;101179.72;4856856;29;20104;-70
2022/10/07 11:34:09;;;;;;;4.60;1.92;;;;;;;24.60;28.32;101146.47;4856930;29;20041;-68
2022/10/07 11:36:43;;;;;;;5.03;1.80;;;;;;;24.65;27.77;101165.81;4856989;29;20048;-70
2022/10/07 11:39:09;;;;;;;4.82;1.80;;;;;;;24.59;28.14;101173.75;4857024;29;20049;-69
2022/10/07 11:41:58;;;;;;;4.40;1.83;;;;;;;24.59;27.76;101163.19;4856948;29;20033;-69
2022/10/07 11:44:29;;;;;;;2.47;1.30;;;;;;;24.60;28.02;101164.94;4856485;29;20636;-69
2022/10/07 11:46:58;;;;;;;2.05;1.45;;;;;;;24.85;28.16;101167.38;4856624;29;20053;-68
2022/10/07 11:49:54;;;;;;;3.15;1.50;;;;;;;25.02;27.17;101161.88;4856454;29;20057;-70
2022/10/07 11:52:29;;;;;;;3.67;1.70;;;;;;;24.95;27.62;101145.22;4855931;29;20073;-69